sensor_id;sensor_type;location;lat;lon;timestamp;temperature;humidity
22532;DHT22;11432;46.924;7.114;2023-09-18T00:00:02;19.60;1.00
22532;DHT22;11432;46.924;7.114;2023-09-18T00:02:30;19.70;1.00
22532;DHT22;11432;46.924;7.114;2023-09-18T00:04:57;19.70;1.00
22532;DHT22;11432;46.924;7.114;2023-09-18T00:07:22;19.70;1.00
22532;DHT22;11432;46.924;7.114;2023-09-18T00:09:48;19.70;1.00
22532;DHT22;11432;46.924;7.114;2023-09-18T00:12:14;19.70;1.00
22532;DHT22;11432;46.924;7.114;2023-09-18T00:14:40;19.70;33.20
22532;DHT22;11432;46.924;7.114;2023-09-18T00:17:07;19.80;1.00
22532;DHT22;11432;46.924;7.114;2023-09-18T00:19:33;19.80;1.00
22532;DHT22;11432;46.924;7.114;2023-09-18T00:21:59;19.80;1.00
22532;DHT22;11432;46.924;7.114;2023-09-18T00:24:27;19.90;1.00
22532;DHT22;11432;46.924;7.114;2023-09-18T00:26:52;19.90;1.00
22532;DHT22;11432;46.924;7.114;2023-09-18T00:29:18;19.90;1.00
22532;DHT22;11432;46.924;7.114;2023-09-18T00:31:44;19.70;1.00
22532;DHT22;11432;46.924;7.114;2023-09-18T00:34:10;19.80;1.00
22532;DHT22;11432;46.924;7.114;2023-09-18T00:36:35;19.60;13.50
22532;DHT22;11432;46.924;7.114;2023-09-18T00:39:01;19.60;13.70
22532;DHT22;11432;46.924;7.114;2023-09-18T00:41:27;19.60;61.60
22532;DHT22;11432;46.924;7.114;2023-09-18T00:43:52;19.60;43.20
22532;DHT22;11432;46.924;7.114;2023-09-18T00:46:19;19.50;47.70
22532;DHT22;11432;46.924;7.114;2023-09-18T00:48:45;19.40;97.50
22532;DHT22;11432;46.924;7.114;2023-09-18T00:51:12;19.30;99.90
22532;DHT22;11432;46.924;7.114;2023-09-18T00:53:38;19.30;99.90
22532;DHT22;11432;46.924;7.114;2023-09-18T00:58:30;19.30;99.90
22532;DHT22;11432;46.924;7.114;2023-09-18T01:00:57;19.40;99.90
22532;DHT22;11432;46.924;7.114;2023-09-18T01:03:23;19.50;99.90
22532;DHT22;11432;46.924;7.114;2023-09-18T01:05:51;19.40;99.90
22532;DHT22;11432;46.924;7.114;2023-09-18T01:08:16;19.30;91.30
22532;DHT22;11432;46.924;7.114;2023-09-18T01:13:18;19.30;90.60
22532;DHT22;11432;46.924;7.114;2023-09-18T01:15:54;19.20;99.90
22532;DHT22;11432;46.924;7.114;2023-09-18T01:18:23;19.20;99.90
22532;DHT22;11432;46.924;7.114;2023-09-18T01:20:49;19.20;99.90
22532;DHT22;11432;46.924;7.114;2023-09-18T01:23:14;19.20;99.50
22532;DHT22;11432;46.924;7.114;2023-09-18T01:25:40;19.10;99.90
22532;DHT22;11432;46.924;7.114;2023-09-18T01:28:05;19.00;99.90
22532;DHT22;11432;46.924;7.114;2023-09-18T01:30:31;18.90;99.90
22532;DHT22;11432;46.924;7.114;2023-09-18T01:32:58;18.90;99.90
22532;DHT22;11432;46.924;7.114;2023-09-18T01:35:26;18.80;99.90
22532;DHT22;11432;46.924;7.114;2023-09-18T01:37:59;18.90;99.90
22532;DHT22;11432;46.924;7.114;2023-09-18T01:40:28;18.90;99.90
22532;DHT22;11432;46.924;7.114;2023-09-18T01:42:55;19.00;99.90
22532;DHT22;11432;46.924;7.114;2023-09-18T01:45:21;19.00;99.90
22532;DHT22;11432;46.924;7.114;2023-09-18T01:47:46;19.00;99.90
22532;DHT22;11432;46.924;7.114;2023-09-18T01:50:12;19.00;99.90
22532;DHT22;11432;46.924;7.114;2023-09-18T01:52:38;19.00;99.90
22532;DHT22;11432;46.924;7.114;2023-09-18T01:55:04;19.10;99.90
22532;DHT22;11432;46.924;7.114;2023-09-18T01:57:30;19.00;99.90
22532;DHT22;11432;46.924;7.114;2023-09-18T01:59:56;19.10;99.90
22532;DHT22;11432;46.924;7.114;2023-09-18T02:02:21;19.10;99.90
22532;DHT22;11432;46.924;7.114;2023-09-18T02:04:47;19.20;99.90
22532;DHT22;11432;46.924;7.114;2023-09-18T02:07:12;19.20;99.90
22532;DHT22;11432;46.924;7.114;2023-09-18T02:09:39;19.20;99.90
22532;DHT22;11432;46.924;7.114;2023-09-18T02:12:04;19.30;99.90
22532;DHT22;11432;46.924;7.114;2023-09-18T02:14:31;19.30;99.90
22532;DHT22;11432;46.924;7.114;2023-09-18T02:16:57;19.30;99.90
22532;DHT22;11432;46.924;7.114;2023-09-18T02:19:23;19.30;99.90
22532;DHT22;11432;46.924;7.114;2023-09-18T02:21:48;19.30;99.90
22532;DHT22;11432;46.924;7.114;2023-09-18T02:24:14;19.40;99.90
22532;DHT22;11432;46.924;7.114;2023-09-18T02:26:39;19.40;28.40
22532;DHT22;11432;46.924;7.114;2023-09-18T02:29:09;19.40;28.30
22532;DHT22;11432;46.924;7.114;2023-09-18T02:31:37;19.40;4.90
22532;DHT22;11432;46.924;7.114;2023-09-18T02:34:02;19.40;34.20
22532;DHT22;11432;46.924;7.114;2023-09-18T02:36:28;19.30;65.50
22532;DHT22;11432;46.924;7.114;2023-09-18T02:38:54;19.20;99.90
22532;DHT22;11432;46.924;7.114;2023-09-18T02:41:19;19.30;99.90
22532;DHT22;11432;46.924;7.114;2023-09-18T02:43:45;19.30;99.90
22532;DHT22;11432;46.924;7.114;2023-09-18T02:46:10;19.40;98.00
22532;DHT22;11432;46.924;7.114;2023-09-18T02:48:36;19.40;99.90
22532;DHT22;11432;46.924;7.114;2023-09-18T02:51:02;19.30;99.90
22532;DHT22;11432;46.924;7.114;2023-09-18T02:53:29;19.20;99.90
22532;DHT22;11432;46.924;7.114;2023-09-18T02:55:55;19.30;99.90
22532;DHT22;11432;46.924;7.114;2023-09-18T02:58:22;19.30;99.90
22532;DHT22;11432;46.924;7.114;2023-09-18T03:00:49;19.30;99.90
22532;DHT22;11432;46.924;7.114;2023-09-18T03:03:16;19.30;99.90
22532;DHT22;11432;46.924;7.114;2023-09-18T03:05:43;19.30;6.30
22532;DHT22;11432;46.924;7.114;2023-09-18T03:08:10;19.40;99.90
22532;DHT22;11432;46.924;7.114;2023-09-18T03:10:40;19.40;99.90
22532;DHT22;11432;46.924;7.114;2023-09-18T03:13:07;19.50;61.90
22532;DHT22;11432;46.924;7.114;2023-09-18T03:15:33;19.40;36.80
22532;DHT22;11432;46.924;7.114;2023-09-18T03:17:59;19.40;1.00
22532;DHT22;11432;46.924;7.114;2023-09-18T03:20:26;19.40;1.00
22532;DHT22;11432;46.924;7.114;2023-09-18T03:22:55;19.50;1.00
22532;DHT22;11432;46.924;7.114;2023-09-18T03:25:21;19.50;1.00
22532;DHT22;11432;46.924;7.114;2023-09-18T03:27:47;19.50;1.00
22532;DHT22;11432;46.924;7.114;2023-09-18T03:30:13;19.60;1.00
22532;DHT22;11432;46.924;7.114;2023-09-18T03:32:41;19.60;1.00
22532;DHT22;11432;46.924;7.114;2023-09-18T03:35:08;19.60;1.00
22532;DHT22;11432;46.924;7.114;2023-09-18T03:37:41;19.60;1.00
22532;DHT22;11432;46.924;7.114;2023-09-18T03:40:07;19.60;1.00
22532;DHT22;11432;46.924;7.114;2023-09-18T03:42:34;19.60;1.00
22532;DHT22;11432;46.924;7.114;2023-09-18T03:44:59;19.50;1.00
22532;DHT22;11432;46.924;7.114;2023-09-18T03:47:25;19.60;1.00
22532;DHT22;11432;46.924;7.114;2023-09-18T03:49:51;19.60;1.00
22532;DHT22;11432;46.924;7.114;2023-09-18T03:52:16;19.70;1.00
22532;DHT22;11432;46.924;7.114;2023-09-18T03:54:42;19.70;1.00
22532;DHT22;11432;46.924;7.114;2023-09-18T03:57:07;19.70;1.00
22532;DHT22;11432;46.924;7.114;2023-09-18T03:59:33;19.70;39.20
22532;DHT22;11432;46.924;7.114;2023-09-18T04:01:59;19.70;63.30
22532;DHT22;11432;46.924;7.114;2023-09-18T04:04:24;19.70;79.70
22532;DHT22;11432;46.924;7.114;2023-09-18T04:06:50;19.50;99.90
22532;DHT22;11432;46.924;7.114;2023-09-18T04:09:15;19.50;99.90
22532;DHT22;11432;46.924;7.114;2023-09-18T04:11:41;19.50;99.90
22532;DHT22;11432;46.924;7.114;2023-09-18T04:14:06;19.30;99.90
22532;DHT22;11432;46.924;7.114;2023-09-18T04:16:32;19.20;99.90
22532;DHT22;11432;46.924;7.114;2023-09-18T04:19:01;19.00;99.90
22532;DHT22;11432;46.924;7.114;2023-09-18T04:21:27;18.90;99.90
22532;DHT22;11432;46.924;7.114;2023-09-18T04:23:55;19.00;99.90
22532;DHT22;11432;46.924;7.114;2023-09-18T04:26:27;19.00;99.90
22532;DHT22;11432;46.924;7.114;2023-09-18T04:28:57;19.00;99.90
22532;DHT22;11432;46.924;7.114;2023-09-18T04:31:23;19.00;99.90
22532;DHT22;11432;46.924;7.114;2023-09-18T04:33:49;18.80;99.90
22532;DHT22;11432;46.924;7.114;2023-09-18T04:36:15;18.80;99.90
22532;DHT22;11432;46.924;7.114;2023-09-18T04:38:40;18.80;99.90
22532;DHT22;11432;46.924;7.114;2023-09-18T04:41:06;18.80;99.90
22532;DHT22;11432;46.924;7.114;2023-09-18T04:43:36;18.80;99.90
22532;DHT22;11432;46.924;7.114;2023-09-18T04:46:02;18.80;99.90
22532;DHT22;11432;46.924;7.114;2023-09-18T04:48:30;18.70;99.90
22532;DHT22;11432;46.924;7.114;2023-09-18T04:50:57;18.70;99.90
22532;DHT22;11432;46.924;7.114;2023-09-18T04:53:22;18.80;99.90
22532;DHT22;11432;46.924;7.114;2023-09-18T04:55:48;18.70;99.90
22532;DHT22;11432;46.924;7.114;2023-09-18T04:58:17;18.60;99.90
22532;DHT22;11432;46.924;7.114;2023-09-18T05:00:43;18.60;99.90
22532;DHT22;11432;46.924;7.114;2023-09-18T05:03:09;18.60;99.90
22532;DHT22;11432;46.924;7.114;2023-09-18T05:05:36;18.50;99.90
22532;DHT22;11432;46.924;7.114;2023-09-18T05:08:02;18.30;99.90
22532;DHT22;11432;46.924;7.114;2023-09-18T05:10:28;18.20;99.90
22532;DHT22;11432;46.924;7.114;2023-09-18T05:12:54;18.10;99.90
22532;DHT22;11432;46.924;7.114;2023-09-18T05:15:24;18.00;99.90
22532;DHT22;11432;46.924;7.114;2023-09-18T05:17:51;18.00;99.90
22532;DHT22;11432;46.924;7.114;2023-09-18T05:20:21;17.90;99.90
22532;DHT22;11432;46.924;7.114;2023-09-18T05:22:53;17.80;99.90
22532;DHT22;11432;46.924;7.114;2023-09-18T05:25:18;17.80;99.90
22532;DHT22;11432;46.924;7.114;2023-09-18T05:27:44;17.80;99.90
22532;DHT22;11432;46.924;7.114;2023-09-18T05:30:15;17.80;99.90
22532;DHT22;11432;46.924;7.114;2023-09-18T05:32:44;17.80;99.90
22532;DHT22;11432;46.924;7.114;2023-09-18T05:35:11;17.80;99.90
22532;DHT22;11432;46.924;7.114;2023-09-18T05:37:38;17.80;99.90
22532;DHT22;11432;46.924;7.114;2023-09-18T05:40:09;17.80;99.90
22532;DHT22;11432;46.924;7.114;2023-09-18T05:42:38;17.80;99.90
22532;DHT22;11432;46.924;7.114;2023-09-18T05:45:04;17.80;99.90
22532;DHT22;11432;46.924;7.114;2023-09-18T05:47:32;17.70;99.90
22532;DHT22;11432;46.924;7.114;2023-09-18T05:49:58;17.70;99.90
22532;DHT22;11432;46.924;7.114;2023-09-18T05:52:24;17.60;99.90
22532;DHT22;11432;46.924;7.114;2023-09-18T05:54:50;17.60;99.90
22532;DHT22;11432;46.924;7.114;2023-09-18T05:57:17;17.60;99.90
22532;DHT22;11432;46.924;7.114;2023-09-18T05:59:42;17.60;99.90
22532;DHT22;11432;46.924;7.114;2023-09-18T06:02:10;17.50;99.90
22532;DHT22;11432;46.924;7.114;2023-09-18T06:04:36;17.50;99.90
22532;DHT22;11432;46.924;7.114;2023-09-18T06:07:05;17.60;99.90
22532;DHT22;11432;46.924;7.114;2023-09-18T06:09:31;17.50;99.90
22532;DHT22;11432;46.924;7.114;2023-09-18T06:11:56;17.60;99.90
22532;DHT22;11432;46.924;7.114;2023-09-18T06:14:22;17.50;99.90
22532;DHT22;11432;46.924;7.114;2023-09-18T06:16:48;17.40;99.90
22532;DHT22;11432;46.924;7.114;2023-09-18T06:19:15;17.40;99.90
22532;DHT22;11432;46.924;7.114;2023-09-18T06:21:43;17.40;99.90
22532;DHT22;11432;46.924;7.114;2023-09-18T06:24:09;17.50;99.90
22532;DHT22;11432;46.924;7.114;2023-09-18T06:26:34;17.50;99.90
22532;DHT22;11432;46.924;7.114;2023-09-18T06:29:01;17.50;99.90
22532;DHT22;11432;46.924;7.114;2023-09-18T06:31:27;17.50;99.90
22532;DHT22;11432;46.924;7.114;2023-09-18T06:33:53;17.50;99.90
22532;DHT22;11432;46.924;7.114;2023-09-18T06:36:19;17.50;99.90
22532;DHT22;11432;46.924;7.114;2023-09-18T06:38:44;17.40;99.90
22532;DHT22;11432;46.924;7.114;2023-09-18T06:41:10;17.40;99.90
22532;DHT22;11432;46.924;7.114;2023-09-18T06:43:35;17.40;99.90
22532;DHT22;11432;46.924;7.114;2023-09-18T06:46:01;17.30;99.90
22532;DHT22;11432;46.924;7.114;2023-09-18T06:50:58;17.20;99.90
22532;DHT22;11432;46.924;7.114;2023-09-18T06:53:23;17.10;99.90
22532;DHT22;11432;46.924;7.114;2023-09-18T06:58:15;17.00;99.90
22532;DHT22;11432;46.924;7.114;2023-09-18T07:00:40;16.90;99.90
22532;DHT22;11432;46.924;7.114;2023-09-18T07:05:35;17.00;99.90
22532;DHT22;11432;46.924;7.114;2023-09-18T07:10:26;16.90;99.90
22532;DHT22;11432;46.924;7.114;2023-09-18T07:12:52;17.00;99.90
22532;DHT22;11432;46.924;7.114;2023-09-18T07:15:17;17.00;99.90
22532;DHT22;11432;46.924;7.114;2023-09-18T07:17:43;17.00;99.90
22532;DHT22;11432;46.924;7.114;2023-09-18T07:20:09;17.00;99.90
22532;DHT22;11432;46.924;7.114;2023-09-18T07:22:39;17.00;99.90
22532;DHT22;11432;46.924;7.114;2023-09-18T07:25:06;17.00;99.90
22532;DHT22;11432;46.924;7.114;2023-09-18T07:27:32;17.10;99.90
22532;DHT22;11432;46.924;7.114;2023-09-18T07:29:58;17.10;99.90
22532;DHT22;11432;46.924;7.114;2023-09-18T07:32:25;17.00;99.90
22532;DHT22;11432;46.924;7.114;2023-09-18T07:34:52;17.10;99.90
22532;DHT22;11432;46.924;7.114;2023-09-18T07:37:19;17.10;99.90
22532;DHT22;11432;46.924;7.114;2023-09-18T07:42:12;17.20;99.90
22532;DHT22;11432;46.924;7.114;2023-09-18T07:44:38;17.20;99.90
22532;DHT22;11432;46.924;7.114;2023-09-18T07:47:03;17.20;99.90
22532;DHT22;11432;46.924;7.114;2023-09-18T07:49:29;17.20;99.90
22532;DHT22;11432;46.924;7.114;2023-09-18T07:51:55;17.20;99.90
22532;DHT22;11432;46.924;7.114;2023-09-18T07:54:21;17.20;99.90
22532;DHT22;11432;46.924;7.114;2023-09-18T07:59:12;17.10;99.90
22532;DHT22;11432;46.924;7.114;2023-09-18T08:01:40;17.10;99.90
22532;DHT22;11432;46.924;7.114;2023-09-18T08:04:06;17.10;99.90
22532;DHT22;11432;46.924;7.114;2023-09-18T08:06:31;17.10;99.90
22532;DHT22;11432;46.924;7.114;2023-09-18T08:08:57;17.10;99.90
22532;DHT22;11432;46.924;7.114;2023-09-18T08:11:23;17.10;99.90
22532;DHT22;11432;46.924;7.114;2023-09-18T08:13:49;17.10;99.90
22532;DHT22;11432;46.924;7.114;2023-09-18T08:18:42;17.20;99.90
22532;DHT22;11432;46.924;7.114;2023-09-18T08:21:08;17.30;99.90
22532;DHT22;11432;46.924;7.114;2023-09-18T08:23:37;17.30;99.90
22532;DHT22;11432;46.924;7.114;2023-09-18T08:26:03;17.30;99.90
22532;DHT22;11432;46.924;7.114;2023-09-18T08:28:29;17.30;99.90
22532;DHT22;11432;46.924;7.114;2023-09-18T08:30:55;17.30;99.90
22532;DHT22;11432;46.924;7.114;2023-09-18T08:33:21;17.20;99.90
22532;DHT22;11432;46.924;7.114;2023-09-18T08:35:46;17.20;99.90
22532;DHT22;11432;46.924;7.114;2023-09-18T08:40:41;17.40;99.90
22532;DHT22;11432;46.924;7.114;2023-09-18T08:43:08;17.30;99.90
22532;DHT22;11432;46.924;7.114;2023-09-18T08:45:40;17.20;99.90
22532;DHT22;11432;46.924;7.114;2023-09-18T08:48:09;17.10;99.90
22532;DHT22;11432;46.924;7.114;2023-09-18T08:50:36;17.20;99.90
22532;DHT22;11432;46.924;7.114;2023-09-18T08:53:03;17.10;99.90
22532;DHT22;11432;46.924;7.114;2023-09-18T08:55:29;17.20;99.90
22532;DHT22;11432;46.924;7.114;2023-09-18T08:57:55;17.20;99.90
22532;DHT22;11432;46.924;7.114;2023-09-18T09:00:23;17.20;99.90
22532;DHT22;11432;46.924;7.114;2023-09-18T09:02:48;17.20;99.90
22532;DHT22;11432;46.924;7.114;2023-09-18T09:05:16;17.40;99.90
22532;DHT22;11432;46.924;7.114;2023-09-18T09:07:42;17.30;99.90
22532;DHT22;11432;46.924;7.114;2023-09-18T09:10:08;17.30;99.90
22532;DHT22;11432;46.924;7.114;2023-09-18T09:15:14;17.30;99.90
22532;DHT22;11432;46.924;7.114;2023-09-18T09:17:41;17.40;99.90
22532;DHT22;11432;46.924;7.114;2023-09-18T09:20:11;17.30;99.90
22532;DHT22;11432;46.924;7.114;2023-09-18T09:22:38;17.30;99.90
22532;DHT22;11432;46.924;7.114;2023-09-18T09:27:54;17.30;99.90
22532;DHT22;11432;46.924;7.114;2023-09-18T09:30:24;17.30;99.90
22532;DHT22;11432;46.924;7.114;2023-09-18T09:35:25;17.40;99.90
22532;DHT22;11432;46.924;7.114;2023-09-18T09:38:14;17.30;99.90
22532;DHT22;11432;46.924;7.114;2023-09-18T09:40:42;17.40;99.90
22532;DHT22;11432;46.924;7.114;2023-09-18T09:43:11;17.30;99.90
22532;DHT22;11432;46.924;7.114;2023-09-18T09:45:40;17.30;99.90
22532;DHT22;11432;46.924;7.114;2023-09-18T09:48:06;17.20;99.90
22532;DHT22;11432;46.924;7.114;2023-09-18T09:50:32;17.20;99.90
22532;DHT22;11432;46.924;7.114;2023-09-18T09:52:59;17.30;99.90
22532;DHT22;11432;46.924;7.114;2023-09-18T09:55:29;17.50;99.90
22532;DHT22;11432;46.924;7.114;2023-09-18T09:58:00;17.50;99.90
22532;DHT22;11432;46.924;7.114;2023-09-18T10:00:32;17.50;99.90
22532;DHT22;11432;46.924;7.114;2023-09-18T10:03:07;17.40;99.90
22532;DHT22;11432;46.924;7.114;2023-09-18T10:05:39;17.40;99.90
22532;DHT22;11432;46.924;7.114;2023-09-18T10:08:24;17.50;99.90
22532;DHT22;11432;46.924;7.114;2023-09-18T10:10:56;17.40;99.90
22532;DHT22;11432;46.924;7.114;2023-09-18T10:13:29;17.50;99.90
22532;DHT22;11432;46.924;7.114;2023-09-18T10:15:59;17.60;99.90
22532;DHT22;11432;46.924;7.114;2023-09-18T10:18:28;17.50;99.90
22532;DHT22;11432;46.924;7.114;2023-09-18T10:21:26;17.60;99.90
22532;DHT22;11432;46.924;7.114;2023-09-18T10:26:50;17.80;99.90
22532;DHT22;11432;46.924;7.114;2023-09-18T10:29:18;17.80;99.90
22532;DHT22;11432;46.924;7.114;2023-09-18T10:31:45;17.90;99.90
22532;DHT22;11432;46.924;7.114;2023-09-18T10:34:13;17.90;99.90
22532;DHT22;11432;46.924;7.114;2023-09-18T10:36:41;18.00;99.90
22532;DHT22;11432;46.924;7.114;2023-09-18T10:39:10;18.00;99.90
22532;DHT22;11432;46.924;7.114;2023-09-18T10:41:38;17.90;99.90
22532;DHT22;11432;46.924;7.114;2023-09-18T10:44:05;18.00;99.90
22532;DHT22;11432;46.924;7.114;2023-09-18T10:46:31;18.10;99.90
22532;DHT22;11432;46.924;7.114;2023-09-18T10:48:59;18.10;99.90
22532;DHT22;11432;46.924;7.114;2023-09-18T10:51:25;18.10;99.90
22532;DHT22;11432;46.924;7.114;2023-09-18T10:53:52;18.00;99.90
22532;DHT22;11432;46.924;7.114;2023-09-18T10:56:19;18.10;99.90
22532;DHT22;11432;46.924;7.114;2023-09-18T10:58:45;18.20;99.90
22532;DHT22;11432;46.924;7.114;2023-09-18T11:01:12;18.10;99.90
22532;DHT22;11432;46.924;7.114;2023-09-18T11:03:38;18.10;99.90
22532;DHT22;11432;46.924;7.114;2023-09-18T11:11:10;18.10;99.90
22532;DHT22;11432;46.924;7.114;2023-09-18T11:13:42;18.10;99.90
22532;DHT22;11432;46.924;7.114;2023-09-18T11:21:29;17.80;99.90
22532;DHT22;11432;46.924;7.114;2023-09-18T11:26:24;17.80;99.90
22532;DHT22;11432;46.924;7.114;2023-09-18T11:28:53;17.80;99.90
22532;DHT22;11432;46.924;7.114;2023-09-18T11:31:19;17.90;99.90
22532;DHT22;11432;46.924;7.114;2023-09-18T11:33:47;17.90;99.90
22532;DHT22;11432;46.924;7.114;2023-09-18T11:36:29;17.80;99.90
22532;DHT22;11432;46.924;7.114;2023-09-18T11:38:58;17.80;99.90
22532;DHT22;11432;46.924;7.114;2023-09-18T11:41:35;17.80;99.90
22532;DHT22;11432;46.924;7.114;2023-09-18T11:46:38;17.80;99.90
22532;DHT22;11432;46.924;7.114;2023-09-18T11:49:07;17.80;99.90
22532;DHT22;11432;46.924;7.114;2023-09-18T11:51:34;17.90;99.90
22532;DHT22;11432;46.924;7.114;2023-09-18T11:54:01;17.80;99.90
22532;DHT22;11432;46.924;7.114;2023-09-18T11:56:29;17.80;99.90
22532;DHT22;11432;46.924;7.114;2023-09-18T11:58:55;17.80;99.90
22532;DHT22;11432;46.924;7.114;2023-09-18T12:01:21;17.90;99.90
22532;DHT22;11432;46.924;7.114;2023-09-18T12:04:01;18.00;99.90
22532;DHT22;11432;46.924;7.114;2023-09-18T12:06:27;18.20;99.90
22532;DHT22;11432;46.924;7.114;2023-09-18T12:08:53;19.70;99.90
22532;DHT22;11432;46.924;7.114;2023-09-18T12:11:20;18.00;99.90
22532;DHT22;11432;46.924;7.114;2023-09-18T12:13:55;18.00;99.90
22532;DHT22;11432;46.924;7.114;2023-09-18T12:16:21;17.70;99.90
22532;DHT22;11432;46.924;7.114;2023-09-18T12:18:47;17.70;99.90
22532;DHT22;11432;46.924;7.114;2023-09-18T12:21:14;17.60;99.90
22532;DHT22;11432;46.924;7.114;2023-09-18T12:23:42;17.60;99.90
22532;DHT22;11432;46.924;7.114;2023-09-18T12:26:10;17.70;99.90
22532;DHT22;11432;46.924;7.114;2023-09-18T12:28:42;17.70;99.90
22532;DHT22;11432;46.924;7.114;2023-09-18T12:31:15;17.70;99.90
22532;DHT22;11432;46.924;7.114;2023-09-18T12:33:41;17.70;99.90
22532;DHT22;11432;46.924;7.114;2023-09-18T12:36:09;17.70;99.90
22532;DHT22;11432;46.924;7.114;2023-09-18T12:38:36;17.70;99.90
22532;DHT22;11432;46.924;7.114;2023-09-18T12:41:03;17.80;99.90
22532;DHT22;11432;46.924;7.114;2023-09-18T12:43:39;17.80;99.90
22532;DHT22;11432;46.924;7.114;2023-09-18T12:46:07;17.80;99.90
22532;DHT22;11432;46.924;7.114;2023-09-18T12:48:37;17.80;99.90
22532;DHT22;11432;46.924;7.114;2023-09-18T12:51:05;17.80;99.90
22532;DHT22;11432;46.924;7.114;2023-09-18T12:53:31;18.00;99.90
22532;DHT22;11432;46.924;7.114;2023-09-18T12:56:11;18.10;99.90
22532;DHT22;11432;46.924;7.114;2023-09-18T12:58:39;18.20;99.90
22532;DHT22;11432;46.924;7.114;2023-09-18T13:01:09;18.30;99.90
22532;DHT22;11432;46.924;7.114;2023-09-18T13:03:42;18.30;99.90
22532;DHT22;11432;46.924;7.114;2023-09-18T13:08:35;18.00;99.90
22532;DHT22;11432;46.924;7.114;2023-09-18T13:11:01;18.00;99.90
22532;DHT22;11432;46.924;7.114;2023-09-18T13:13:32;18.10;99.90
22532;DHT22;11432;46.924;7.114;2023-09-18T13:15:58;18.00;99.90
22532;DHT22;11432;46.924;7.114;2023-09-18T13:18:25;17.90;99.90
22532;DHT22;11432;46.924;7.114;2023-09-18T13:20:52;18.00;99.90
22532;DHT22;11432;46.924;7.114;2023-09-18T13:23:17;18.10;99.90
22532;DHT22;11432;46.924;7.114;2023-09-18T13:25:43;18.30;99.90
22532;DHT22;11432;46.924;7.114;2023-09-18T13:28:11;18.40;99.90
22532;DHT22;11432;46.924;7.114;2023-09-18T13:30:39;18.20;99.90
22532;DHT22;11432;46.924;7.114;2023-09-18T13:33:08;18.30;99.90
22532;DHT22;11432;46.924;7.114;2023-09-18T13:35:42;18.30;99.90
22532;DHT22;11432;46.924;7.114;2023-09-18T13:38:09;18.30;99.90
22532;DHT22;11432;46.924;7.114;2023-09-18T13:40:36;18.20;99.90
22532;DHT22;11432;46.924;7.114;2023-09-18T13:43:03;18.30;99.90
22532;DHT22;11432;46.924;7.114;2023-09-18T13:45:33;18.30;99.90
22532;DHT22;11432;46.924;7.114;2023-09-18T13:48:01;18.30;99.90
22532;DHT22;11432;46.924;7.114;2023-09-18T13:50:27;18.30;99.90
22532;DHT22;11432;46.924;7.114;2023-09-18T13:52:52;18.40;99.90
22532;DHT22;11432;46.924;7.114;2023-09-18T13:55:19;18.40;99.90
22532;DHT22;11432;46.924;7.114;2023-09-18T13:57:45;18.40;99.90
22532;DHT22;11432;46.924;7.114;2023-09-18T14:00:11;18.40;99.90
22532;DHT22;11432;46.924;7.114;2023-09-18T14:02:38;18.40;99.90
22532;DHT22;11432;46.924;7.114;2023-09-18T14:05:05;18.40;99.90
22532;DHT22;11432;46.924;7.114;2023-09-18T14:07:31;18.50;99.90
22532;DHT22;11432;46.924;7.114;2023-09-18T14:09:56;18.50;99.90
22532;DHT22;11432;46.924;7.114;2023-09-18T14:12:23;18.50;99.90
22532;DHT22;11432;46.924;7.114;2023-09-18T14:14:48;18.60;99.90
22532;DHT22;11432;46.924;7.114;2023-09-18T14:17:14;18.50;99.90
22532;DHT22;11432;46.924;7.114;2023-09-18T14:19:43;18.60;99.90
22532;DHT22;11432;46.924;7.114;2023-09-18T14:22:09;18.60;99.90
22532;DHT22;11432;46.924;7.114;2023-09-18T14:24:35;18.60;99.90
22532;DHT22;11432;46.924;7.114;2023-09-18T14:27:02;18.50;99.90
22532;DHT22;11432;46.924;7.114;2023-09-18T14:29:28;18.50;99.90
22532;DHT22;11432;46.924;7.114;2023-09-18T14:31:56;18.60;99.90
22532;DHT22;11432;46.924;7.114;2023-09-18T14:34:21;18.70;99.90
22532;DHT22;11432;46.924;7.114;2023-09-18T14:36:47;18.70;99.90
22532;DHT22;11432;46.924;7.114;2023-09-18T14:39:12;18.70;99.90
22532;DHT22;11432;46.924;7.114;2023-09-18T14:41:38;18.70;99.90
22532;DHT22;11432;46.924;7.114;2023-09-18T14:44:05;18.80;99.90
22532;DHT22;11432;46.924;7.114;2023-09-18T14:49:00;18.70;99.90
22532;DHT22;11432;46.924;7.114;2023-09-18T14:51:27;18.80;99.90
22532;DHT22;11432;46.924;7.114;2023-09-18T14:53:54;18.90;99.90
22532;DHT22;11432;46.924;7.114;2023-09-18T14:56:20;18.80;99.90
22532;DHT22;11432;46.924;7.114;2023-09-18T14:58:45;18.80;99.90
22532;DHT22;11432;46.924;7.114;2023-09-18T15:01:11;18.80;99.90
22532;DHT22;11432;46.924;7.114;2023-09-18T15:03:37;18.90;99.90
22532;DHT22;11432;46.924;7.114;2023-09-18T15:06:03;18.80;99.90
22532;DHT22;11432;46.924;7.114;2023-09-18T15:08:28;18.90;99.90
22532;DHT22;11432;46.924;7.114;2023-09-18T15:10:54;19.10;99.90
22532;DHT22;11432;46.924;7.114;2023-09-18T15:13:20;19.10;99.90
22532;DHT22;11432;46.924;7.114;2023-09-18T15:15:46;19.00;99.90
22532;DHT22;11432;46.924;7.114;2023-09-18T15:18:12;19.10;99.90
22532;DHT22;11432;46.924;7.114;2023-09-18T15:20:37;19.10;99.90
22532;DHT22;11432;46.924;7.114;2023-09-18T15:23:05;19.10;99.90
22532;DHT22;11432;46.924;7.114;2023-09-18T15:25:32;19.20;99.90
22532;DHT22;11432;46.924;7.114;2023-09-18T15:28:06;20.90;99.90
22532;DHT22;11432;46.924;7.114;2023-09-18T15:30:32;22.00;99.90
22532;DHT22;11432;46.924;7.114;2023-09-18T15:32:58;23.20;99.90
22532;DHT22;11432;46.924;7.114;2023-09-18T15:35:25;23.50;99.90
22532;DHT22;11432;46.924;7.114;2023-09-18T15:37:51;22.50;91.30
22532;DHT22;11432;46.924;7.114;2023-09-18T15:40:18;22.60;99.90
22532;DHT22;11432;46.924;7.114;2023-09-18T15:42:45;22.60;99.90
22532;DHT22;11432;46.924;7.114;2023-09-18T15:45:11;22.50;99.90
22532;DHT22;11432;46.924;7.114;2023-09-18T15:47:37;21.80;99.90
22532;DHT22;11432;46.924;7.114;2023-09-18T15:50:05;21.60;99.90
22532;DHT22;11432;46.924;7.114;2023-09-18T15:52:30;21.40;99.90
22532;DHT22;11432;46.924;7.114;2023-09-18T15:54:56;21.40;99.90
22532;DHT22;11432;46.924;7.114;2023-09-18T15:57:22;21.20;99.90
22532;DHT22;11432;46.924;7.114;2023-09-18T15:59:47;21.20;99.90
22532;DHT22;11432;46.924;7.114;2023-09-18T16:02:13;20.90;1.00
22532;DHT22;11432;46.924;7.114;2023-09-18T16:04:39;20.70;99.90
22532;DHT22;11432;46.924;7.114;2023-09-18T16:07:05;20.90;99.90
22532;DHT22;11432;46.924;7.114;2023-09-18T16:09:31;20.70;99.90
22532;DHT22;11432;46.924;7.114;2023-09-18T16:11:57;21.10;99.90
22532;DHT22;11432;46.924;7.114;2023-09-18T16:14:23;21.20;1.00
22532;DHT22;11432;46.924;7.114;2023-09-18T16:16:49;21.70;1.00
22532;DHT22;11432;46.924;7.114;2023-09-18T16:19:14;21.80;1.00
22532;DHT22;11432;46.924;7.114;2023-09-18T16:21:40;21.40;1.00
22532;DHT22;11432;46.924;7.114;2023-09-18T16:24:06;21.60;99.90
22532;DHT22;11432;46.924;7.114;2023-09-18T16:26:35;21.80;1.00